createdAt,value
2023-10-05T00:01:26.172Z,8.60
2023-10-05T00:03:53.712Z,10.77
2023-10-05T00:06:25.129Z,10.40
2023-10-05T00:08:54.264Z,8.87
2023-10-05T00:11:31.658Z,11.13
2023-10-05T00:14:05.048Z,9.07
2023-10-05T00:16:37.880Z,11.23
2023-10-05T00:19:14.010Z,11.90
2023-10-05T00:21:53.745Z,11.83
2023-10-05T00:24:30.628Z,11.20
2023-10-05T00:26:59.394Z,14.10
2023-10-05T00:29:29.694Z,11.07
2023-10-05T00:32:01.403Z,12.43
2023-10-05T00:34:29.588Z,12.83
2023-10-05T00:36:59.854Z,11.43
2023-10-05T00:39:32.154Z,12.73
2023-10-05T00:42:05.202Z,11.37
2023-10-05T00:44:33.943Z,10.50
2023-10-05T00:47:06.557Z,10.07
2023-10-05T00:49:46.853Z,10.70
2023-10-05T00:52:19.110Z,12.40
2023-10-05T00:54:49.671Z,10.70
2023-10-05T00:57:20.266Z,10.13
2023-10-05T00:59:48.595Z,9.63
2023-10-05T01:02:16.056Z,10.87
2023-10-05T01:04:47.368Z,12.67
2023-10-05T01:07:27.817Z,13.50
2023-10-05T01:10:02.362Z,12.07
2023-10-05T01:12:39.466Z,12.83
2023-10-05T01:15:11.578Z,11.53
2023-10-05T01:17:38.824Z,10.60
2023-10-05T01:20:13.821Z,11.60
2023-10-05T01:22:41.038Z,12.40
2023-10-05T01:25:10.081Z,11.43
2023-10-05T01:27:41.643Z,10.53
2023-10-05T01:30:10.503Z,10.13
2023-10-05T01:32:37.354Z,11.17
2023-10-05T01:35:12.350Z,9.80
2023-10-05T01:37:41.399Z,9.77
2023-10-05T01:40:34.773Z,11.07
2023-10-05T01:43:01.436Z,13.27
2023-10-05T01:45:34.807Z,10.30
2023-10-05T01:48:05.800Z,11.93
2023-10-05T01:50:33.597Z,10.10
2023-10-05T01:53:16.657Z,9.83
2023-10-05T01:55:46.662Z,9.83
2023-10-05T01:58:26.993Z,9.63
2023-10-05T02:00:55.385Z,9.67
2023-10-05T02:03:25.431Z,11.33
2023-10-05T02:05:57.952Z,11.32
2023-10-05T02:08:24.753Z,11.63
2023-10-05T02:10:51.819Z,8.67
2023-10-05T02:13:19.071Z,11.57
2023-10-05T02:15:50.142Z,11.23
2023-10-05T02:18:25.832Z,8.50
2023-10-05T02:20:58.137Z,9.17
2023-10-05T02:23:27.524Z,11.23
2023-10-05T02:25:58.668Z,10.60
2023-10-05T02:28:28.355Z,10.90
2023-10-05T02:31:00.831Z,11.00
2023-10-05T02:33:32.973Z,10.83
2023-10-05T02:36:12.920Z,10.63
2023-10-05T02:38:40.590Z,10.47
2023-10-05T02:41:08.447Z,9.50
2023-10-05T02:43:41.877Z,12.13
2023-10-05T02:46:12.674Z,9.07
2023-10-05T02:48:42.667Z,9.67
2023-10-05T02:51:12.541Z,9.87
2023-10-05T02:53:42.637Z,10.27
2023-10-05T02:56:28.024Z,9.90
2023-10-05T02:58:57.846Z,9.37
2023-10-05T03:01:24.650Z,11.67
2023-10-05T03:03:52.839Z,10.03
2023-10-05T03:06:23.695Z,10.00
2023-10-05T03:08:51.031Z,9.60
2023-10-05T03:11:19.482Z,11.00
2023-10-05T03:13:48.216Z,10.20
2023-10-05T03:16:18.233Z,8.23
2023-10-05T03:18:46.171Z,9.03
2023-10-05T03:21:14.978Z,9.40
2023-10-05T03:23:42.511Z,10.07
2023-10-05T03:26:11.719Z,9.63
2023-10-05T03:28:39.315Z,9.97
2023-10-05T03:31:25.333Z,11.33
2023-10-05T03:33:53.566Z,10.50
2023-10-05T03:36:21.034Z,13.50
2023-10-05T03:38:56.664Z,13.90
2023-10-05T03:41:27.432Z,11.00
2023-10-05T03:44:02.209Z,13.97
2023-10-05T03:46:29.222Z,10.23
2023-10-05T03:49:01.347Z,9.67
2023-10-05T03:51:29.936Z,9.23
2023-10-05T03:53:57.494Z,14.37
2023-10-05T03:56:28.719Z,9.33
2023-10-05T03:58:56.050Z,10.67
2023-10-05T04:01:25.944Z,9.33
2023-10-05T04:03:53.167Z,12.60
2023-10-05T04:06:25.021Z,12.83
2023-10-05T04:08:58.864Z,13.50
2023-10-05T04:11:29.942Z,12.83
2023-10-05T04:13:58.382Z,11.77
2023-10-05T04:16:45.382Z,9.80
2023-10-05T04:19:12.557Z,11.13
2023-10-05T04:21:41.455Z,10.07
2023-10-05T04:24:09.046Z,11.50
2023-10-05T04:26:38.584Z,11.10
2023-10-05T04:29:06.513Z,9.93
2023-10-05T04:31:33.834Z,12.30
2023-10-05T04:34:01.955Z,10.80
2023-10-05T04:36:28.755Z,11.43
2023-10-05T04:38:56.223Z,11.07
2023-10-05T04:41:30.033Z,11.60
2023-10-05T04:43:58.003Z,13.60
2023-10-05T04:46:25.440Z,12.10
2023-10-05T04:49:24.762Z,11.77
2023-10-05T04:51:52.427Z,8.13
2023-10-05T04:54:20.262Z,9.67
2023-10-05T04:56:49.995Z,10.00
2023-10-05T04:59:16.746Z,12.20
2023-10-05T05:02:07.453Z,12.63
2023-10-05T05:04:53.801Z,12.07
2023-10-05T05:07:23.729Z,13.50
2023-10-05T05:09:52.009Z,12.37
2023-10-05T05:12:19.141Z,11.27
2023-10-05T05:14:47.692Z,10.37
2023-10-05T05:17:25.420Z,12.13
2023-10-05T05:19:56.984Z,11.10
2023-10-05T05:22:25.071Z,13.77
2023-10-05T05:24:51.945Z,11.97
2023-10-05T05:27:18.701Z,11.30
2023-10-05T05:29:49.442Z,9.17
2023-10-05T05:32:16.200Z,11.07
2023-10-05T05:34:44.184Z,9.63
2023-10-05T05:37:15.006Z,9.67
2023-10-05T05:39:41.957Z,10.53
2023-10-05T05:42:14.385Z,9.43
2023-10-05T05:44:42.074Z,10.37
2023-10-05T05:47:11.405Z,10.73
2023-10-05T05:49:41.799Z,9.50
2023-10-05T05:52:10.099Z,9.97
2023-10-05T05:54:37.176Z,10.57
2023-10-05T05:57:12.937Z,13.70
2023-10-05T05:59:40.837Z,12.03
2023-10-05T06:02:11.868Z,9.87
2023-10-05T06:04:41.594Z,11.00
2023-10-05T06:07:12.834Z,10.47
2023-10-05T06:09:46.605Z,12.30
2023-10-05T06:12:16.494Z,9.97
2023-10-05T06:14:43.509Z,11.10
2023-10-05T06:17:11.182Z,8.97
2023-10-05T06:19:38.332Z,14.00
2023-10-05T06:22:07.791Z,9.67
2023-10-05T06:24:43.228Z,11.27
2023-10-05T06:27:09.992Z,9.83
2023-10-05T06:29:36.802Z,10.87
2023-10-05T06:32:09.799Z,14.00
2023-10-05T06:34:39.208Z,12.40
2023-10-05T06:37:05.989Z,12.27
2023-10-05T06:39:33.337Z,12.73
2023-10-05T06:42:00.173Z,11.53
2023-10-05T06:44:32.887Z,12.17
2023-10-05T06:47:01.152Z,13.73
2023-10-05T06:49:28.478Z,11.50
2023-10-05T06:51:56.569Z,11.70
2023-10-05T06:54:23.397Z,9.30
2023-10-05T06:56:51.012Z,12.10
2023-10-05T06:59:22.112Z,12.67
2023-10-05T07:01:48.927Z,10.83
2023-10-05T07:04:18.422Z,13.00
2023-10-05T07:06:46.049Z,12.27
2023-10-05T07:09:12.900Z,11.73
2023-10-05T07:11:39.691Z,12.00
2023-10-05T07:14:06.488Z,10.27
2023-10-05T07:16:33.667Z,11.90
2023-10-05T07:19:00.553Z,10.53
2023-10-05T07:21:27.447Z,11.73
2023-10-05T07:23:54.184Z,11.63
2023-10-05T07:26:21.115Z,16.00
2023-10-05T07:28:50.041Z,16.83
2023-10-05T07:31:16.852Z,10.67
2023-10-05T07:33:43.908Z,12.30
2023-10-05T07:36:10.710Z,11.73
2023-10-05T07:38:40.278Z,9.33
2023-10-05T07:41:08.220Z,9.80
2023-10-05T07:43:35.430Z,10.53
2023-10-05T07:46:02.367Z,11.20
2023-10-05T07:48:29.473Z,8.50
2023-10-05T07:50:59.550Z,13.17
2023-10-05T07:53:26.665Z,7.77
2023-10-05T07:55:53.563Z,11.67
2023-10-05T07:58:20.474Z,8.13
2023-10-05T08:00:47.420Z,10.93
2023-10-05T08:03:14.324Z,10.33
2023-10-05T08:05:42.076Z,16.03
2023-10-05T08:08:11.599Z,13.13
2023-10-05T08:10:39.904Z,13.80
2023-10-05T08:13:07.209Z,11.50
2023-10-05T08:15:35.796Z,9.53
2023-10-05T08:18:03.119Z,9.13
2023-10-05T08:20:30.325Z,10.30
2023-10-05T08:22:58.201Z,12.07
2023-10-05T08:25:25.728Z,10.80
2023-10-05T08:27:53.254Z,14.47
2023-10-05T08:30:20.500Z,8.57
2023-10-05T08:32:49.668Z,9.43
2023-10-05T08:35:20.104Z,12.83
2023-10-05T08:37:50.631Z,12.70
2023-10-05T08:40:54.178Z,10.67
2023-10-05T08:43:21.299Z,14.13
2023-10-05T08:45:51.258Z,14.03
2023-10-05T08:48:30.008Z,13.20
2023-10-05T08:51:15.442Z,12.70
2023-10-05T08:54:06.699Z,11.40
2023-10-05T08:56:35.025Z,11.47
2023-10-05T08:59:08.730Z,11.23
2023-10-05T09:01:36.275Z,11.37
2023-10-05T09:04:11.283Z,12.67
2023-10-05T09:06:48.310Z,9.13
2023-10-05T09:09:16.387Z,8.43
2023-10-05T09:11:43.598Z,11.27
2023-10-05T09:14:14.791Z,9.17
2023-10-05T09:16:42.851Z,8.47
2023-10-05T09:19:16.294Z,10.67
2023-10-05T09:21:52.074Z,8.05
2023-10-05T09:24:23.724Z,11.95
2023-10-05T09:26:51.674Z,10.38
2023-10-05T09:29:23.311Z,11.30
2023-10-05T09:31:55.721Z,9.13
2023-10-05T09:34:37.382Z,10.55
2023-10-05T09:37:10.815Z,9.07
2023-10-05T09:39:55.198Z,8.48
2023-10-05T09:42:27.011Z,8.38
2023-10-05T09:44:58.252Z,11.10
2023-10-05T09:47:33.788Z,9.98
2023-10-05T09:50:02.498Z,9.60
2023-10-05T09:52:44.394Z,8.48
2023-10-05T09:55:14.243Z,9.23
2023-10-05T09:57:47.984Z,9.32
2023-10-05T10:00:28.462Z,11.55
2023-10-05T10:03:00.694Z,10.18
2023-10-05T10:05:32.244Z,11.10
2023-10-05T10:08:11.114Z,8.73
2023-10-05T10:10:44.883Z,12.45
2023-10-05T10:13:14.753Z,8.70
2023-10-05T10:15:46.264Z,8.85
2023-10-05T10:18:15.689Z,7.53
2023-10-05T10:20:48.966Z,7.55
2023-10-05T10:23:22.770Z,7.82
2023-10-05T10:25:53.350Z,10.13
2023-10-05T10:28:40.623Z,9.10
2023-10-05T10:31:22.625Z,7.93
2023-10-05T10:33:52.835Z,10.60
2023-10-05T10:36:21.315Z,11.32
2023-10-05T10:38:52.092Z,7.90
2023-10-05T10:41:22.177Z,8.23
2023-10-05T10:43:58.731Z,8.93
2023-10-05T10:46:31.515Z,8.32
2023-10-05T10:48:58.998Z,11.43
2023-10-05T10:51:33.598Z,9.32
2023-10-05T10:54:16.002Z,8.10
2023-10-05T10:56:43.391Z,9.10
2023-10-05T10:59:12.300Z,10.20
2023-10-05T11:01:44.797Z,8.63
2023-10-05T11:04:25.242Z,9.63
2023-10-05T11:07:11.801Z,11.20
2023-10-05T11:09:50.236Z,10.57
2023-10-05T11:12:18.434Z,9.20
2023-10-05T11:14:45.731Z,8.32
2023-10-05T11:17:36.663Z,8.23
2023-10-05T11:20:19.537Z,7.97
2023-10-05T11:22:50.927Z,9.57
2023-10-05T11:25:18.076Z,9.13
2023-10-05T11:27:49.495Z,9.83
2023-10-05T11:30:33.796Z,10.67
2023-10-05T11:33:56.270Z,7.40
2023-10-05T11:35:53.688Z,10.37
2023-10-05T11:38:23.065Z,10.00
2023-10-05T11:40:54.843Z,9.97
2023-10-05T11:43:21.786Z,7.20
2023-10-05T11:45:58.755Z,8.80
2023-10-05T11:48:49.180Z,11.23
2023-10-05T11:51:21.029Z,9.67
2023-10-05T11:53:48.626Z,7.13
2023-10-05T11:56:19.370Z,9.07
2023-10-05T11:58:48.291Z,7.47
2023-10-05T12:01:20.279Z,7.70
2023-10-05T12:03:48.525Z,9.87
2023-10-05T12:06:24.575Z,7.27
2023-10-05T12:08:54.971Z,7.43
2023-10-05T12:11:24.723Z,9.47
2023-10-05T12:14:00.207Z,7.97
2023-10-05T12:16:33.818Z,7.10
2023-10-05T12:19:14.918Z,9.13
2023-10-05T12:21:43.199Z,9.47
2023-10-05T12:24:12.564Z,7.93
2023-10-05T12:26:45.819Z,6.90
2023-10-05T12:29:15.845Z,7.67
2023-10-05T12:31:47.489Z,10.30
2023-10-05T12:34:28.862Z,8.13
2023-10-05T12:36:56.781Z,9.07
2023-10-05T12:39:30.636Z,7.13
2023-10-05T12:41:57.697Z,7.77
2023-10-05T12:44:25.048Z,7.83
2023-10-05T12:46:52.020Z,7.70
2023-10-05T12:49:19.091Z,5.97
2023-10-05T12:51:48.014Z,5.90
2023-10-05T12:54:20.881Z,6.80
2023-10-05T12:56:51.894Z,4.70
2023-10-05T12:59:20.819Z,8.13
2023-10-05T13:01:48.597Z,7.53
2023-10-05T13:04:17.333Z,10.10
2023-10-05T13:06:45.978Z,5.77
2023-10-05T13:09:14.236Z,9.67
2023-10-05T13:11:45.957Z,7.97
2023-10-05T13:14:15.666Z,9.37
2023-10-05T13:16:45.344Z,11.30
2023-10-05T13:19:14.256Z,5.53
2023-10-05T13:21:44.500Z,6.63
2023-10-05T13:24:12.560Z,10.30
2023-10-05T13:26:46.439Z,7.40
2023-10-05T13:29:17.352Z,9.30
2023-10-05T13:31:47.667Z,7.77
2023-10-05T13:34:20.993Z,12.50
2023-10-05T13:36:51.252Z,8.20
2023-10-05T13:39:22.183Z,8.93
2023-10-05T13:41:55.040Z,5.83
2023-10-05T13:44:21.857Z,6.53
2023-10-05T13:46:49.087Z,8.60
2023-10-05T13:49:18.643Z,7.90
2023-10-05T13:51:45.542Z,6.17
2023-10-05T13:54:16.663Z,6.20
2023-10-05T13:56:43.479Z,6.73
2023-10-05T13:59:18.643Z,8.73
2023-10-05T14:01:46.171Z,5.17
2023-10-05T14:04:16.013Z,4.87
2023-10-05T14:06:46.632Z,9.73
2023-10-05T14:09:14.410Z,6.27
2023-10-05T14:11:42.286Z,4.70
2023-10-05T14:14:11.266Z,7.47
2023-10-05T14:16:55.174Z,8.17
2023-10-05T14:19:24.010Z,6.50
2023-10-05T14:21:54.030Z,6.00
2023-10-05T14:24:22.244Z,5.90
2023-10-05T14:26:50.131Z,5.87
2023-10-05T14:29:20.649Z,5.70
2023-10-05T14:31:53.375Z,6.13
2023-10-05T14:34:22.554Z,4.23
2023-10-05T14:36:53.708Z,6.83
2023-10-05T14:39:24.108Z,4.37
2023-10-05T14:41:55.819Z,6.83
2023-10-05T14:44:24.781Z,7.87
2023-10-05T14:46:53.316Z,6.47
2023-10-05T14:49:22.965Z,4.63
2023-10-05T14:51:51.413Z,5.27
2023-10-05T14:54:22.411Z,6.93
2023-10-05T14:56:49.306Z,7.40
2023-10-05T14:59:16.064Z,7.33
2023-10-05T15:01:42.975Z,8.93
2023-10-05T15:04:09.715Z,7.07
2023-10-05T15:06:36.749Z,5.83
2023-10-05T15:09:03.916Z,6.77
2023-10-05T15:11:31.667Z,5.17
2023-10-05T15:13:59.439Z,7.60
2023-10-05T15:16:27.745Z,6.17
2023-10-05T15:18:55.797Z,7.00
2023-10-05T15:21:23.882Z,5.63
2023-10-05T15:23:50.618Z,6.20
2023-10-05T15:26:18.392Z,5.70
2023-10-05T15:28:45.487Z,8.00
2023-10-05T15:31:12.664Z,5.33
2023-10-05T15:33:39.564Z,4.60
2023-10-05T15:36:06.560Z,7.43
2023-10-05T15:38:35.135Z,7.30
2023-10-05T15:41:05.415Z,6.37
2023-10-05T15:43:33.089Z,6.23
2023-10-05T15:46:01.674Z,5.47
2023-10-05T15:48:28.931Z,7.43
2023-10-05T15:50:57.345Z,7.87
2023-10-05T15:53:24.393Z,5.27
2023-10-05T15:55:53.097Z,6.10
2023-10-05T15:58:20.223Z,6.47
2023-10-05T16:00:47.067Z,8.43
2023-10-05T16:03:15.697Z,5.03
2023-10-05T16:05:43.937Z,6.37
2023-10-05T16:08:11.722Z,5.90
2023-10-05T16:10:39.690Z,4.77
2023-10-05T16:13:10.196Z,4.73
2023-10-05T16:15:39.739Z,6.37
2023-10-05T16:18:09.033Z,7.37
2023-10-05T16:20:38.841Z,5.73
2023-10-05T16:23:07.849Z,5.70
2023-10-05T16:25:37.006Z,7.63
2023-10-05T16:28:08.972Z,7.13
2023-10-05T16:30:36.890Z,4.57
2023-10-05T16:33:06.704Z,6.03
2023-10-05T16:35:34.766Z,8.73
2023-10-05T16:38:01.807Z,6.43
2023-10-05T16:40:30.001Z,7.27
2023-10-05T16:42:58.978Z,6.67
2023-10-05T16:45:26.510Z,4.50
2023-10-05T16:47:57.753Z,5.83
2023-10-05T16:50:26.815Z,6.30
2023-10-05T16:52:55.416Z,5.53
2023-10-05T16:55:22.830Z,6.17
2023-10-05T16:57:52.234Z,7.30
2023-10-05T17:00:24.192Z,7.03
2023-10-05T17:02:53.267Z,7.50
2023-10-05T17:05:23.459Z,9.93
2023-10-05T17:07:52.484Z,6.50
2023-10-05T17:10:19.781Z,7.00
2023-10-05T17:12:47.536Z,5.43
2023-10-05T17:15:17.841Z,9.43
2023-10-05T17:17:45.423Z,8.10
2023-10-05T17:20:12.670Z,5.93
2023-10-05T17:22:40.107Z,7.20
2023-10-05T17:25:08.918Z,8.30
2023-10-05T17:27:36.007Z,10.93
2023-10-05T17:30:04.278Z,9.77
2023-10-05T17:32:33.874Z,8.63
2023-10-05T17:35:01.642Z,11.73
2023-10-05T17:37:29.914Z,7.67
2023-10-05T17:39:57.969Z,10.23
2023-10-05T17:42:26.162Z,11.30
2023-10-05T17:44:53.816Z,11.70
2023-10-05T17:47:24.180Z,8.43
2023-10-05T17:49:52.522Z,6.80
2023-10-05T17:52:20.256Z,9.53
2023-10-05T17:54:48.855Z,6.70
2023-10-05T17:57:16.082Z,9.27
2023-10-05T17:59:43.036Z,11.43
2023-10-05T18:02:10.097Z,7.53
2023-10-05T18:04:37.156Z,11.67
2023-10-05T18:07:07.553Z,8.83
2023-10-05T18:09:38.089Z,13.73
2023-10-05T18:12:09.188Z,9.03
2023-10-05T18:14:37.154Z,10.97
2023-10-05T18:17:06.322Z,10.67
2023-10-05T18:19:33.819Z,9.30
2023-10-05T18:22:01.241Z,9.40
2023-10-05T18:24:28.139Z,12.80
2023-10-05T18:26:54.990Z,12.30
2023-10-05T18:29:21.761Z,11.77
2023-10-05T18:31:48.810Z,17.47
2023-10-05T18:34:15.902Z,13.03
2023-10-05T18:36:42.721Z,13.07
2023-10-05T18:39:14.969Z,13.07
2023-10-05T18:41:43.888Z,16.53
2023-10-05T18:44:10.965Z,14.57
2023-10-05T18:46:38.062Z,13.43
2023-10-05T18:49:08.515Z,9.87
2023-10-05T18:51:35.876Z,11.87
2023-10-05T18:54:02.760Z,10.63
2023-10-05T18:56:33.016Z,9.67
2023-10-05T18:59:02.191Z,9.97
2023-10-05T19:01:29.545Z,9.17
2023-10-05T19:03:56.436Z,11.07
2023-10-05T19:06:24.449Z,12.60
2023-10-05T19:08:51.350Z,13.50
2023-10-05T19:11:20.781Z,10.77
2023-10-05T19:13:48.828Z,13.23
2023-10-05T19:16:16.018Z,10.53
2023-10-05T19:18:42.783Z,13.03
2023-10-05T19:21:14.662Z,8.70
2023-10-05T19:23:43.343Z,10.63
2023-10-05T19:26:10.183Z,11.23
2023-10-05T19:28:37.339Z,10.50
2023-10-05T19:31:04.600Z,13.80
2023-10-05T19:33:34.320Z,12.07
2023-10-05T19:36:01.157Z,11.40
2023-10-05T19:38:27.979Z,7.90
2023-10-05T19:40:54.937Z,7.00
2023-10-05T19:43:22.131Z,11.90
2023-10-05T19:45:49.068Z,11.03
2023-10-05T19:48:16.597Z,10.20
2023-10-05T19:50:44.032Z,12.07
2023-10-05T19:53:10.975Z,7.47
2023-10-05T19:55:37.770Z,11.07
2023-10-05T19:58:06.431Z,9.40
2023-10-05T20:00:36.612Z,12.17
2023-10-05T20:03:04.330Z,9.03
2023-10-05T20:05:31.222Z,11.73
2023-10-05T20:07:58.461Z,10.43
2023-10-05T20:10:35.072Z,10.27
2023-10-05T20:13:06.324Z,9.53
2023-10-05T20:15:43.455Z,10.43
2023-10-05T20:18:10.414Z,10.53
2023-10-05T20:20:37.748Z,9.90
2023-10-05T20:23:06.117Z,9.83
2023-10-05T20:25:33.559Z,10.43
2023-10-05T20:28:00.485Z,11.33
2023-10-05T20:30:28.301Z,13.40
2023-10-05T20:32:55.117Z,11.33
2023-10-05T20:35:22.169Z,11.40
2023-10-05T20:37:48.985Z,13.33
2023-10-05T20:40:15.779Z,12.90
2023-10-05T20:42:42.839Z,12.27
2023-10-05T20:45:10.593Z,11.43
2023-10-05T20:47:37.545Z,11.67
2023-10-05T20:50:06.082Z,12.67
2023-10-05T20:52:33.019Z,12.47
2023-10-05T20:54:59.832Z,12.03
2023-10-05T20:57:26.625Z,11.90
2023-10-05T20:59:54.514Z,10.57
2023-10-05T21:02:21.421Z,11.00
2023-10-05T21:04:48.359Z,12.17
2023-10-05T21:07:15.217Z,9.23
2023-10-05T21:09:42.018Z,11.07
2023-10-05T21:12:08.970Z,8.80
2023-10-05T21:14:35.777Z,10.83
2023-10-05T21:17:02.563Z,10.57
2023-10-05T21:19:29.475Z,9.80
2023-10-05T21:21:56.278Z,10.23
2023-10-05T21:24:23.047Z,11.47
2023-10-05T21:26:49.756Z,13.63
2023-10-05T21:29:16.542Z,11.30
2023-10-05T21:31:43.477Z,12.73
2023-10-05T21:34:10.426Z,15.77
2023-10-05T21:36:37.923Z,11.30
2023-10-05T21:39:04.981Z,10.87
2023-10-05T21:41:32.027Z,11.17
2023-10-05T21:43:59.515Z,12.07
2023-10-05T21:46:27.866Z,10.03
2023-10-05T21:48:54.927Z,11.87
2023-10-05T21:51:22.083Z,12.00
2023-10-05T21:53:48.825Z,11.97
2023-10-05T21:56:16.953Z,14.63
2023-10-05T21:58:43.818Z,12.27
2023-10-05T22:01:11.554Z,11.40
2023-10-05T22:03:39.233Z,11.57
2023-10-05T22:06:07.028Z,8.80
2023-10-05T22:08:33.971Z,10.10
2023-10-05T22:11:02.503Z,9.87
2023-10-05T22:13:29.457Z,11.57
2023-10-05T22:15:56.200Z,12.07
2023-10-05T22:18:22.941Z,13.10
2023-10-05T22:20:49.686Z,14.13
2023-10-05T22:23:17.596Z,14.00
2023-10-05T22:25:44.436Z,15.33
2023-10-05T22:28:11.282Z,14.03
2023-10-05T22:30:41.326Z,16.67
2023-10-05T22:33:10.387Z,12.10
2023-10-05T22:35:38.914Z,10.63
2023-10-05T22:38:06.152Z,12.37
2023-10-05T22:40:36.451Z,12.00
2023-10-05T22:43:03.639Z,11.17
2023-10-05T22:45:30.735Z,12.47
2023-10-05T22:47:58.112Z,15.13
2023-10-05T22:50:24.990Z,14.87
2023-10-05T22:52:52.105Z,14.00
2023-10-05T22:55:19.150Z,13.83
2023-10-05T22:57:45.851Z,13.93
2023-10-05T23:00:13.556Z,14.20
2023-10-05T23:02:40.552Z,13.47
2023-10-05T23:05:08.115Z,14.73
2023-10-05T23:07:35.429Z,12.23
2023-10-05T23:10:06.483Z,14.20
2023-10-05T23:12:34.752Z,11.33
2023-10-05T23:15:02.307Z,12.83
2023-10-05T23:17:29.473Z,14.70
2023-10-05T23:19:56.394Z,12.07
2023-10-05T23:22:23.125Z,11.57
2023-10-05T23:24:57.010Z,12.97
2023-10-05T23:27:23.881Z,10.83
2023-10-05T23:29:50.536Z,11.67
2023-10-05T23:32:17.304Z,15.43
2023-10-05T23:34:44.755Z,12.27
2023-10-05T23:37:12.815Z,11.80
2023-10-05T23:39:41.412Z,13.03
2023-10-05T23:42:18.434Z,12.30
2023-10-05T23:44:47.681Z,11.13
2023-10-05T23:47:23.973Z,12.40
2023-10-05T23:49:55.029Z,10.23
2023-10-05T23:52:22.661Z,10.20
2023-10-05T23:54:49.394Z,10.77
2023-10-05T23:57:21.108Z,10.97
2023-10-05T23:59:48.850Z,8.00
